sensor_id;sensor_type;location;lat;lon;timestamp;temperature;humidity
9808;DHT22;4943;52.550;13.462;2022-08-18T00:02:00;26.80;91.60
9808;DHT22;4943;52.550;13.462;2022-08-18T00:04:32;26.80;91.80
9808;DHT22;4943;52.550;13.462;2022-08-18T00:07:19;26.80;91.80
9808;DHT22;4943;52.550;13.462;2022-08-18T00:09:48;26.80;91.90
9808;DHT22;4943;52.550;13.462;2022-08-18T00:12:20;26.80;92.00
9808;DHT22;4943;52.550;13.462;2022-08-18T00:14:49;26.80;92.10
9808;DHT22;4943;52.550;13.462;2022-08-18T00:17:17;26.80;92.10
9808;DHT22;4943;52.550;13.462;2022-08-18T00:19:47;26.80;92.10
9808;DHT22;4943;52.550;13.462;2022-08-18T00:22:18;26.70;92.20
9808;DHT22;4943;52.550;13.462;2022-08-18T00:24:48;26.70;92.20
9808;DHT22;4943;52.550;13.462;2022-08-18T00:27:17;26.70;92.30
9808;DHT22;4943;52.550;13.462;2022-08-18T00:29:56;26.70;92.30
9808;DHT22;4943;52.550;13.462;2022-08-18T00:32:28;26.60;92.30
9808;DHT22;4943;52.550;13.462;2022-08-18T00:35:06;26.60;92.30
9808;DHT22;4943;52.550;13.462;2022-08-18T00:37:34;26.60;92.40
9808;DHT22;4943;52.550;13.462;2022-08-18T00:40:05;26.50;92.40
9808;DHT22;4943;52.550;13.462;2022-08-18T00:42:41;26.50;92.40
9808;DHT22;4943;52.550;13.462;2022-08-18T00:45:15;26.50;92.50
9808;DHT22;4943;52.550;13.462;2022-08-18T00:47:43;26.50;92.50
9808;DHT22;4943;52.550;13.462;2022-08-18T00:50:15;26.40;92.50
9808;DHT22;4943;52.550;13.462;2022-08-18T00:52:49;26.40;92.50
9808;DHT22;4943;52.550;13.462;2022-08-18T00:55:20;26.40;92.60
9808;DHT22;4943;52.550;13.462;2022-08-18T00:57:50;26.40;92.60
9808;DHT22;4943;52.550;13.462;2022-08-18T01:00:20;26.30;92.90
9808;DHT22;4943;52.550;13.462;2022-08-18T01:02:55;26.30;92.50
9808;DHT22;4943;52.550;13.462;2022-08-18T01:05:31;26.30;92.50
9808;DHT22;4943;52.550;13.462;2022-08-18T01:08:01;26.30;92.80
9808;DHT22;4943;52.550;13.462;2022-08-18T01:10:32;26.30;92.50
9808;DHT22;4943;52.550;13.462;2022-08-18T01:13:01;26.20;92.40
9808;DHT22;4943;52.550;13.462;2022-08-18T01:15:29;26.20;92.40
9808;DHT22;4943;52.550;13.462;2022-08-18T01:17:59;26.20;92.40
9808;DHT22;4943;52.550;13.462;2022-08-18T01:20:51;26.20;92.40
9808;DHT22;4943;52.550;13.462;2022-08-18T01:23:43;26.20;92.50
9808;DHT22;4943;52.550;13.462;2022-08-18T01:26:12;26.20;92.50
9808;DHT22;4943;52.550;13.462;2022-08-18T01:28:41;26.20;92.50
9808;DHT22;4943;52.550;13.462;2022-08-18T01:31:12;26.20;92.50
9808;DHT22;4943;52.550;13.462;2022-08-18T01:33:55;26.20;92.60
9808;DHT22;4943;52.550;13.462;2022-08-18T01:36:25;26.20;92.60
9808;DHT22;4943;52.550;13.462;2022-08-18T01:38:55;26.20;92.60
9808;DHT22;4943;52.550;13.462;2022-08-18T01:41:24;26.20;92.60
9808;DHT22;4943;52.550;13.462;2022-08-18T01:43:57;26.20;92.50
9808;DHT22;4943;52.550;13.462;2022-08-18T01:46:26;26.20;92.50
9808;DHT22;4943;52.550;13.462;2022-08-18T01:48:55;26.20;92.90
9808;DHT22;4943;52.550;13.462;2022-08-18T01:51:24;26.20;92.60
9808;DHT22;4943;52.550;13.462;2022-08-18T01:54:09;26.20;92.60
9808;DHT22;4943;52.550;13.462;2022-08-18T01:56:38;26.20;92.60
9808;DHT22;4943;52.550;13.462;2022-08-18T01:59:08;26.20;92.60
9808;DHT22;4943;52.550;13.462;2022-08-18T02:01:44;26.20;92.90
9808;DHT22;4943;52.550;13.462;2022-08-18T02:04:21;26.20;92.60
9808;DHT22;4943;52.550;13.462;2022-08-18T02:07:10;26.10;92.50
9808;DHT22;4943;52.550;13.462;2022-08-18T02:09:41;26.10;92.50
9808;DHT22;4943;52.550;13.462;2022-08-18T02:12:10;26.10;92.50
9808;DHT22;4943;52.550;13.462;2022-08-18T02:14:39;26.00;92.40
9808;DHT22;4943;52.550;13.462;2022-08-18T02:17:08;26.00;92.40
9808;DHT22;4943;52.550;13.462;2022-08-18T02:19:41;26.00;92.40
9808;DHT22;4943;52.550;13.462;2022-08-18T02:22:11;26.00;92.80
9808;DHT22;4943;52.550;13.462;2022-08-18T02:24:41;26.00;92.40
9808;DHT22;4943;52.550;13.462;2022-08-18T02:27:10;26.00;92.40
9808;DHT22;4943;52.550;13.462;2022-08-18T02:29:39;25.90;92.30
9808;DHT22;4943;52.550;13.462;2022-08-18T02:32:07;25.90;92.40
9808;DHT22;4943;52.550;13.462;2022-08-18T02:34:36;25.90;92.40
9808;DHT22;4943;52.550;13.462;2022-08-18T02:37:04;25.80;92.40
9808;DHT22;4943;52.550;13.462;2022-08-18T02:39:33;25.90;92.40
9808;DHT22;4943;52.550;13.462;2022-08-18T02:42:06;25.80;92.40
9808;DHT22;4943;52.550;13.462;2022-08-18T02:44:35;25.80;92.40
9808;DHT22;4943;52.550;13.462;2022-08-18T02:47:03;25.80;92.70
9808;DHT22;4943;52.550;13.462;2022-08-18T02:49:31;25.80;92.30
9808;DHT22;4943;52.550;13.462;2022-08-18T02:51:59;25.80;92.30
9808;DHT22;4943;52.550;13.462;2022-08-18T02:54:28;25.80;92.30
9808;DHT22;4943;52.550;13.462;2022-08-18T02:56:56;25.80;92.30
9808;DHT22;4943;52.550;13.462;2022-08-18T02:59:26;25.80;92.30
9808;DHT22;4943;52.550;13.462;2022-08-18T03:01:59;25.80;92.30
9808;DHT22;4943;52.550;13.462;2022-08-18T03:04:30;25.70;92.30
9808;DHT22;4943;52.550;13.462;2022-08-18T03:07:01;25.80;92.30
9808;DHT22;4943;52.550;13.462;2022-08-18T03:09:31;25.70;92.30
9808;DHT22;4943;52.550;13.462;2022-08-18T03:12:00;25.70;92.30
9808;DHT22;4943;52.550;13.462;2022-08-18T03:14:30;25.70;92.40
9808;DHT22;4943;52.550;13.462;2022-08-18T03:16:58;25.70;92.40
9808;DHT22;4943;52.550;13.462;2022-08-18T03:19:28;25.70;92.40
9808;DHT22;4943;52.550;13.462;2022-08-18T03:21:57;25.60;92.30
9808;DHT22;4943;52.550;13.462;2022-08-18T03:24:30;25.60;92.40
9808;DHT22;4943;52.550;13.462;2022-08-18T03:26:59;25.60;92.40
9808;DHT22;4943;52.550;13.462;2022-08-18T03:29:29;25.50;92.50
9808;DHT22;4943;52.550;13.462;2022-08-18T03:32:01;25.50;92.50
9808;DHT22;4943;52.550;13.462;2022-08-18T03:34:29;25.50;92.50
9808;DHT22;4943;52.550;13.462;2022-08-18T03:36:58;25.50;92.60
9808;DHT22;4943;52.550;13.462;2022-08-18T03:39:27;25.40;92.60
9808;DHT22;4943;52.550;13.462;2022-08-18T03:41:56;25.40;92.60
9808;DHT22;4943;52.550;13.462;2022-08-18T03:44:30;25.40;92.70
9808;DHT22;4943;52.550;13.462;2022-08-18T03:46:59;25.30;92.70
9808;DHT22;4943;52.550;13.462;2022-08-18T03:49:29;25.30;92.70
9808;DHT22;4943;52.550;13.462;2022-08-18T03:51:58;25.30;92.80
9808;DHT22;4943;52.550;13.462;2022-08-18T03:54:28;25.30;92.90
9808;DHT22;4943;52.550;13.462;2022-08-18T03:56:58;25.30;92.90
9808;DHT22;4943;52.550;13.462;2022-08-18T03:59:27;25.30;93.30
9808;DHT22;4943;52.550;13.462;2022-08-18T04:02:01;25.30;93.10
9808;DHT22;4943;52.550;13.462;2022-08-18T04:04:30;25.20;93.20
9808;DHT22;4943;52.550;13.462;2022-08-18T04:07:02;25.20;93.30
9808;DHT22;4943;52.550;13.462;2022-08-18T04:09:32;25.20;93.40
9808;DHT22;4943;52.550;13.462;2022-08-18T04:12:03;25.20;93.50
9808;DHT22;4943;52.550;13.462;2022-08-18T04:14:43;25.20;93.60
9808;DHT22;4943;52.550;13.462;2022-08-18T04:17:16;25.20;93.70
9808;DHT22;4943;52.550;13.462;2022-08-18T04:19:46;25.20;93.70
9808;DHT22;4943;52.550;13.462;2022-08-18T04:22:14;25.20;93.80
9808;DHT22;4943;52.550;13.462;2022-08-18T04:24:44;25.20;93.80
9808;DHT22;4943;52.550;13.462;2022-08-18T04:27:12;25.20;93.90
9808;DHT22;4943;52.550;13.462;2022-08-18T04:29:40;25.30;93.90
9808;DHT22;4943;52.550;13.462;2022-08-18T04:32:09;25.30;93.80
9808;DHT22;4943;52.550;13.462;2022-08-18T04:34:38;25.30;93.80
9808;DHT22;4943;52.550;13.462;2022-08-18T04:37:07;25.30;93.70
9808;DHT22;4943;52.550;13.462;2022-08-18T04:39:36;25.40;93.70
9808;DHT22;4943;52.550;13.462;2022-08-18T04:42:04;25.40;93.70
9808;DHT22;4943;52.550;13.462;2022-08-18T04:44:32;25.40;93.70
9808;DHT22;4943;52.550;13.462;2022-08-18T04:47:01;25.50;93.70
9808;DHT22;4943;52.550;13.462;2022-08-18T04:49:29;25.50;93.70
9808;DHT22;4943;52.550;13.462;2022-08-18T04:52:01;25.50;93.70
9808;DHT22;4943;52.550;13.462;2022-08-18T04:55:08;25.60;93.70
9808;DHT22;4943;52.550;13.462;2022-08-18T04:57:36;25.60;93.70
9808;DHT22;4943;52.550;13.462;2022-08-18T05:00:06;25.70;93.70
9808;DHT22;4943;52.550;13.462;2022-08-18T05:02:34;25.70;93.70
9808;DHT22;4943;52.550;13.462;2022-08-18T05:05:03;25.80;93.70
9808;DHT22;4943;52.550;13.462;2022-08-18T05:07:32;25.90;93.70
9808;DHT22;4943;52.550;13.462;2022-08-18T05:10:01;25.90;93.60
9808;DHT22;4943;52.550;13.462;2022-08-18T05:12:29;26.00;93.70
9808;DHT22;4943;52.550;13.462;2022-08-18T05:14:57;26.00;93.60
9808;DHT22;4943;52.550;13.462;2022-08-18T05:17:25;26.10;93.60
9808;DHT22;4943;52.550;13.462;2022-08-18T05:19:57;26.10;93.50
9808;DHT22;4943;52.550;13.462;2022-08-18T05:22:27;26.20;93.50
9808;DHT22;4943;52.550;13.462;2022-08-18T05:24:59;26.30;93.40
9808;DHT22;4943;52.550;13.462;2022-08-18T05:27:31;26.30;93.30
9808;DHT22;4943;52.550;13.462;2022-08-18T05:30:01;26.30;93.30
9808;DHT22;4943;52.550;13.462;2022-08-18T05:32:32;26.30;93.20
9808;DHT22;4943;52.550;13.462;2022-08-18T05:35:19;26.30;93.20
9808;DHT22;4943;52.550;13.462;2022-08-18T05:38:01;26.30;93.50
9808;DHT22;4943;52.550;13.462;2022-08-18T05:40:33;26.30;93.20
9808;DHT22;4943;52.550;13.462;2022-08-18T05:43:04;26.30;93.20
9808;DHT22;4943;52.550;13.462;2022-08-18T05:45:34;26.40;93.30
9808;DHT22;4943;52.550;13.462;2022-08-18T05:48:02;26.50;93.30
9808;DHT22;4943;52.550;13.462;2022-08-18T05:50:33;26.50;93.40
9808;DHT22;4943;52.550;13.462;2022-08-18T05:53:07;26.50;93.30
9808;DHT22;4943;52.550;13.462;2022-08-18T05:55:52;26.60;93.40
9808;DHT22;4943;52.550;13.462;2022-08-18T05:58:48;26.60;93.30
9808;DHT22;4943;52.550;13.462;2022-08-18T06:01:19;26.70;93.40
9808;DHT22;4943;52.550;13.462;2022-08-18T06:03:52;26.80;93.40
9808;DHT22;4943;52.550;13.462;2022-08-18T06:06:24;26.80;93.30
9808;DHT22;4943;52.550;13.462;2022-08-18T06:08:57;26.80;93.30
9808;DHT22;4943;52.550;13.462;2022-08-18T06:11:30;26.90;93.40
9808;DHT22;4943;52.550;13.462;2022-08-18T06:13:59;26.90;93.30
9808;DHT22;4943;52.550;13.462;2022-08-18T06:16:40;27.00;93.30
9808;DHT22;4943;52.550;13.462;2022-08-18T06:19:25;27.10;93.30
9808;DHT22;4943;52.550;13.462;2022-08-18T06:22:02;27.20;93.20
9808;DHT22;4943;52.550;13.462;2022-08-18T06:24:36;27.30;93.00
9808;DHT22;4943;52.550;13.462;2022-08-18T06:27:13;27.40;92.80
9808;DHT22;4943;52.550;13.462;2022-08-18T06:29:59;27.50;92.70
9808;DHT22;4943;52.550;13.462;2022-08-18T06:32:41;27.60;92.40
9808;DHT22;4943;52.550;13.462;2022-08-18T06:35:17;27.70;92.30
9808;DHT22;4943;52.550;13.462;2022-08-18T06:37:52;27.80;92.10
9808;DHT22;4943;52.550;13.462;2022-08-18T06:40:42;27.80;92.00
9808;DHT22;4943;52.550;13.462;2022-08-18T06:43:13;27.80;91.90
9808;DHT22;4943;52.550;13.462;2022-08-18T06:45:45;27.90;91.80
9808;DHT22;4943;52.550;13.462;2022-08-18T06:48:23;28.00;91.60
9808;DHT22;4943;52.550;13.462;2022-08-18T06:50:57;28.10;91.60
9808;DHT22;4943;52.550;13.462;2022-08-18T06:53:48;28.20;91.40
9808;DHT22;4943;52.550;13.462;2022-08-18T06:56:24;28.20;91.30
9808;DHT22;4943;52.550;13.462;2022-08-18T06:59:13;28.20;91.30
9808;DHT22;4943;52.550;13.462;2022-08-18T07:01:42;28.30;91.10
9808;DHT22;4943;52.550;13.462;2022-08-18T07:04:30;28.30;91.20
9808;DHT22;4943;52.550;13.462;2022-08-18T07:06:59;28.30;91.00
9808;DHT22;4943;52.550;13.462;2022-08-18T07:09:38;28.30;90.90
9808;DHT22;4943;52.550;13.462;2022-08-18T07:12:08;28.40;90.80
9808;DHT22;4943;52.550;13.462;2022-08-18T07:14:44;28.40;90.90
9808;DHT22;4943;52.550;13.462;2022-08-18T07:17:20;28.50;90.90
9808;DHT22;4943;52.550;13.462;2022-08-18T07:20:17;28.60;90.80
9808;DHT22;4943;52.550;13.462;2022-08-18T07:22:54;28.60;91.00
9808;DHT22;4943;52.550;13.462;2022-08-18T07:25:29;28.70;90.70
9808;DHT22;4943;52.550;13.462;2022-08-18T07:27:58;28.70;90.70
9808;DHT22;4943;52.550;13.462;2022-08-18T07:30:32;28.70;90.60
9808;DHT22;4943;52.550;13.462;2022-08-18T07:33:08;28.90;90.60
9808;DHT22;4943;52.550;13.462;2022-08-18T07:35:44;28.90;90.50
9808;DHT22;4943;52.550;13.462;2022-08-18T07:38:17;29.00;90.30
9808;DHT22;4943;52.550;13.462;2022-08-18T07:41:10;29.10;90.20
9808;DHT22;4943;52.550;13.462;2022-08-18T07:43:49;29.20;90.10
9808;DHT22;4943;52.550;13.462;2022-08-18T07:46:27;29.20;90.10
9808;DHT22;4943;52.550;13.462;2022-08-18T07:48:56;29.30;90.00
9808;DHT22;4943;52.550;13.462;2022-08-18T07:51:31;29.40;89.80
9808;DHT22;4943;52.550;13.462;2022-08-18T07:54:10;29.50;89.70
9808;DHT22;4943;52.550;13.462;2022-08-18T07:57:05;29.50;89.60
9808;DHT22;4943;52.550;13.462;2022-08-18T07:59:41;29.60;89.30
9808;DHT22;4943;52.550;13.462;2022-08-18T08:02:21;29.70;88.50
9808;DHT22;4943;52.550;13.462;2022-08-18T08:05:02;29.70;88.50
9808;DHT22;4943;52.550;13.462;2022-08-18T08:07:38;29.70;88.50
9808;DHT22;4943;52.550;13.462;2022-08-18T08:10:23;29.70;88.40
9808;DHT22;4943;52.550;13.462;2022-08-18T08:13:00;29.80;88.30
9808;DHT22;4943;52.550;13.462;2022-08-18T08:15:42;29.80;89.20
9808;DHT22;4943;52.550;13.462;2022-08-18T08:18:24;29.90;88.30
9808;DHT22;4943;52.550;13.462;2022-08-18T08:20:57;29.90;88.60
9808;DHT22;4943;52.550;13.462;2022-08-18T08:23:37;30.00;88.00
9808;DHT22;4943;52.550;13.462;2022-08-18T08:26:22;30.00;87.90
9808;DHT22;4943;52.550;13.462;2022-08-18T08:28:58;30.10;87.30
9808;DHT22;4943;52.550;13.462;2022-08-18T08:31:34;30.10;87.40
9808;DHT22;4943;52.550;13.462;2022-08-18T08:34:13;30.10;87.60
9808;DHT22;4943;52.550;13.462;2022-08-18T08:36:44;30.20;88.20
9808;DHT22;4943;52.550;13.462;2022-08-18T08:39:18;30.20;87.60
9808;DHT22;4943;52.550;13.462;2022-08-18T08:41:52;30.30;87.70
9808;DHT22;4943;52.550;13.462;2022-08-18T08:44:48;30.40;87.30
9808;DHT22;4943;52.550;13.462;2022-08-18T08:47:28;30.40;87.00
9808;DHT22;4943;52.550;13.462;2022-08-18T08:50:03;30.50;87.00
9808;DHT22;4943;52.550;13.462;2022-08-18T08:52:37;30.50;86.40
9808;DHT22;4943;52.550;13.462;2022-08-18T08:55:11;30.60;86.20
9808;DHT22;4943;52.550;13.462;2022-08-18T08:57:45;30.70;86.00
9808;DHT22;4943;52.550;13.462;2022-08-18T09:00:15;30.80;85.70
9808;DHT22;4943;52.550;13.462;2022-08-18T09:02:55;30.80;85.80
9808;DHT22;4943;52.550;13.462;2022-08-18T09:05:29;30.90;86.10
9808;DHT22;4943;52.550;13.462;2022-08-18T09:08:22;30.90;85.40
9808;DHT22;4943;52.550;13.462;2022-08-18T09:11:19;30.90;85.40
9808;DHT22;4943;52.550;13.462;2022-08-18T09:14:12;30.90;85.40
9808;DHT22;4943;52.550;13.462;2022-08-18T09:16:49;30.90;85.80
9808;DHT22;4943;52.550;13.462;2022-08-18T09:19:38;31.00;85.90
9808;DHT22;4943;52.550;13.462;2022-08-18T09:22:25;31.10;85.20
9808;DHT22;4943;52.550;13.462;2022-08-18T09:24:58;31.10;85.60
9808;DHT22;4943;52.550;13.462;2022-08-18T09:27:34;31.10;85.30
9808;DHT22;4943;52.550;13.462;2022-08-18T09:30:41;31.10;85.50
9808;DHT22;4943;52.550;13.462;2022-08-18T09:33:19;31.20;84.90
9808;DHT22;4943;52.550;13.462;2022-08-18T09:36:18;31.20;84.30
9808;DHT22;4943;52.550;13.462;2022-08-18T09:38:57;31.20;84.40
9808;DHT22;4943;52.550;13.462;2022-08-18T09:41:51;31.20;84.70
9808;DHT22;4943;52.550;13.462;2022-08-18T09:48:02;31.40;85.10
9808;DHT22;4943;52.550;13.462;2022-08-18T09:50:58;31.50;84.90
9808;DHT22;4943;52.550;13.462;2022-08-18T09:54:08;31.60;83.90
9808;DHT22;4943;52.550;13.462;2022-08-18T09:59:55;31.60;83.90
9808;DHT22;4943;52.550;13.462;2022-08-18T10:03:01;31.70;83.70
9808;DHT22;4943;52.550;13.462;2022-08-18T10:05:33;31.80;82.90
9808;DHT22;4943;52.550;13.462;2022-08-18T10:08:25;31.90;82.70
9808;DHT22;4943;52.550;13.462;2022-08-18T10:11:03;32.00;82.00
9808;DHT22;4943;52.550;13.462;2022-08-18T10:14:08;32.10;81.90
9808;DHT22;4943;52.550;13.462;2022-08-18T10:16:56;32.20;81.50
9808;DHT22;4943;52.550;13.462;2022-08-18T10:19:52;32.30;81.10
9808;DHT22;4943;52.550;13.462;2022-08-18T10:22:36;32.30;80.30
9808;DHT22;4943;52.550;13.462;2022-08-18T10:25:06;32.30;80.60
9808;DHT22;4943;52.550;13.462;2022-08-18T10:27:53;32.30;80.20
9808;DHT22;4943;52.550;13.462;2022-08-18T10:30:43;32.40;80.50
9808;DHT22;4943;52.550;13.462;2022-08-18T10:33:54;32.50;80.30
9808;DHT22;4943;52.550;13.462;2022-08-18T10:36:43;32.60;80.10
9808;DHT22;4943;52.550;13.462;2022-08-18T10:39:14;32.60;79.30
9808;DHT22;4943;52.550;13.462;2022-08-18T10:41:57;32.50;78.60
9808;DHT22;4943;52.550;13.462;2022-08-18T10:44:31;32.40;78.60
9808;DHT22;4943;52.550;13.462;2022-08-18T10:47:03;32.30;78.50
9808;DHT22;4943;52.550;13.462;2022-08-18T10:49:51;32.30;78.90
9808;DHT22;4943;52.550;13.462;2022-08-18T10:52:35;32.30;79.10
9808;DHT22;4943;52.550;13.462;2022-08-18T10:55:31;32.40;78.10
9808;DHT22;4943;52.550;13.462;2022-08-18T10:58:27;32.40;78.00
9808;DHT22;4943;52.550;13.462;2022-08-18T11:01:13;32.30;77.90
9808;DHT22;4943;52.550;13.462;2022-08-18T11:04:02;32.40;78.20
9808;DHT22;4943;52.550;13.462;2022-08-18T11:06:46;32.60;78.40
9808;DHT22;4943;52.550;13.462;2022-08-18T11:09:22;32.60;77.90
9808;DHT22;4943;52.550;13.462;2022-08-18T11:11:54;32.70;78.10
9808;DHT22;4943;52.550;13.462;2022-08-18T11:18:00;32.80;77.20
9808;DHT22;4943;52.550;13.462;2022-08-18T11:20:36;32.80;76.90
9808;DHT22;4943;52.550;13.462;2022-08-18T11:23:12;32.80;76.70
9808;DHT22;4943;52.550;13.462;2022-08-18T11:25:42;32.80;76.80
9808;DHT22;4943;52.550;13.462;2022-08-18T11:28:15;32.80;76.90
9808;DHT22;4943;52.550;13.462;2022-08-18T11:30:48;32.80;76.90
9808;DHT22;4943;52.550;13.462;2022-08-18T11:33:19;32.80;76.70
9808;DHT22;4943;52.550;13.462;2022-08-18T11:35:53;32.80;76.50
9808;DHT22;4943;52.550;13.462;2022-08-18T11:38:24;32.90;76.60
9808;DHT22;4943;52.550;13.462;2022-08-18T11:41:09;32.90;76.70
9808;DHT22;4943;52.550;13.462;2022-08-18T11:43:39;32.90;76.80
9808;DHT22;4943;52.550;13.462;2022-08-18T11:46:21;32.90;76.30
9808;DHT22;4943;52.550;13.462;2022-08-18T11:49:18;32.90;76.00
9808;DHT22;4943;52.550;13.462;2022-08-18T11:51:55;32.90;75.90
9808;DHT22;4943;52.550;13.462;2022-08-18T11:54:39;32.90;75.60
9808;DHT22;4943;52.550;13.462;2022-08-18T11:57:41;32.90;74.90
9808;DHT22;4943;52.550;13.462;2022-08-18T12:00:52;32.90;74.50
9808;DHT22;4943;52.550;13.462;2022-08-18T12:03:28;32.90;74.90
9808;DHT22;4943;52.550;13.462;2022-08-18T12:06:08;32.80;74.80
9808;DHT22;4943;52.550;13.462;2022-08-18T12:08:56;32.80;74.80
9808;DHT22;4943;52.550;13.462;2022-08-18T12:11:27;32.80;75.00
9808;DHT22;4943;52.550;13.462;2022-08-18T12:14:00;32.80;74.60
9808;DHT22;4943;52.550;13.462;2022-08-18T12:16:49;32.90;74.50
9808;DHT22;4943;52.550;13.462;2022-08-18T12:19:20;33.00;74.40
9808;DHT22;4943;52.550;13.462;2022-08-18T12:21:53;33.00;74.00
9808;DHT22;4943;52.550;13.462;2022-08-18T12:24:25;33.10;74.00
9808;DHT22;4943;52.550;13.462;2022-08-18T12:27:02;33.00;73.80
9808;DHT22;4943;52.550;13.462;2022-08-18T12:29:48;33.20;74.00
9808;DHT22;4943;52.550;13.462;2022-08-18T12:32:16;33.30;73.80
9808;DHT22;4943;52.550;13.462;2022-08-18T12:35:08;33.40;73.60
9808;DHT22;4943;52.550;13.462;2022-08-18T12:37:41;33.60;73.20
9808;DHT22;4943;52.550;13.462;2022-08-18T12:40:30;33.60;72.90
9808;DHT22;4943;52.550;13.462;2022-08-18T12:42:59;33.80;73.70
9808;DHT22;4943;52.550;13.462;2022-08-18T12:45:27;34.00;73.60
9808;DHT22;4943;52.550;13.462;2022-08-18T12:47:57;34.20;72.00
9808;DHT22;4943;52.550;13.462;2022-08-18T12:50:30;34.30;71.40
9808;DHT22;4943;52.550;13.462;2022-08-18T12:53:19;34.40;71.20
9808;DHT22;4943;52.550;13.462;2022-08-18T12:56:05;34.40;70.90
9808;DHT22;4943;52.550;13.462;2022-08-18T12:58:37;34.50;70.70
9808;DHT22;4943;52.550;13.462;2022-08-18T13:01:06;34.50;70.60
9808;DHT22;4943;52.550;13.462;2022-08-18T13:03:36;34.50;70.20
9808;DHT22;4943;52.550;13.462;2022-08-18T13:06:08;34.50;70.50
9808;DHT22;4943;52.550;13.462;2022-08-18T13:08:39;34.70;70.20
9808;DHT22;4943;52.550;13.462;2022-08-18T13:11:16;34.70;69.60
9808;DHT22;4943;52.550;13.462;2022-08-18T13:13:50;34.80;69.50
9808;DHT22;4943;52.550;13.462;2022-08-18T13:16:23;34.90;69.30
9808;DHT22;4943;52.550;13.462;2022-08-18T13:19:05;34.90;68.90
9808;DHT22;4943;52.550;13.462;2022-08-18T13:21:37;34.90;68.60
9808;DHT22;4943;52.550;13.462;2022-08-18T13:24:09;34.80;68.60
9808;DHT22;4943;52.550;13.462;2022-08-18T13:26:40;34.70;68.40
9808;DHT22;4943;52.550;13.462;2022-08-18T13:29:12;34.70;68.70
9808;DHT22;4943;52.550;13.462;2022-08-18T13:31:43;34.70;68.90
9808;DHT22;4943;52.550;13.462;2022-08-18T13:34:24;34.70;69.00
9808;DHT22;4943;52.550;13.462;2022-08-18T13:36:56;34.70;69.30
9808;DHT22;4943;52.550;13.462;2022-08-18T13:39:26;34.70;69.80
9808;DHT22;4943;52.550;13.462;2022-08-18T13:42:01;34.70;70.10
9808;DHT22;4943;52.550;13.462;2022-08-18T13:44:49;34.70;70.00
9808;DHT22;4943;52.550;13.462;2022-08-18T13:47:19;34.60;70.00
9808;DHT22;4943;52.550;13.462;2022-08-18T13:49:49;34.50;70.30
9808;DHT22;4943;52.550;13.462;2022-08-18T13:52:24;34.50;70.70
9808;DHT22;4943;52.550;13.462;2022-08-18T13:55:03;34.50;70.80
9808;DHT22;4943;52.550;13.462;2022-08-18T13:57:38;34.50;70.60
9808;DHT22;4943;52.550;13.462;2022-08-18T14:00:09;34.50;70.70
9808;DHT22;4943;52.550;13.462;2022-08-18T14:02:46;34.70;70.20
9808;DHT22;4943;52.550;13.462;2022-08-18T14:05:17;34.70;69.90
9808;DHT22;4943;52.550;13.462;2022-08-18T14:07:46;34.70;69.80
9808;DHT22;4943;52.550;13.462;2022-08-18T14:10:20;34.80;69.90
9808;DHT22;4943;52.550;13.462;2022-08-18T14:12:51;34.80;69.70
9808;DHT22;4943;52.550;13.462;2022-08-18T14:15:23;34.80;69.40
9808;DHT22;4943;52.550;13.462;2022-08-18T14:17:52;34.90;69.10
9808;DHT22;4943;52.550;13.462;2022-08-18T14:20:24;34.90;68.80
9808;DHT22;4943;52.550;13.462;2022-08-18T14:23:14;34.80;68.50
9808;DHT22;4943;52.550;13.462;2022-08-18T14:26:01;34.90;68.70
9808;DHT22;4943;52.550;13.462;2022-08-18T14:28:49;34.90;69.30
9808;DHT22;4943;52.550;13.462;2022-08-18T14:31:18;35.00;69.30
9808;DHT22;4943;52.550;13.462;2022-08-18T14:33:48;35.00;68.40
9808;DHT22;4943;52.550;13.462;2022-08-18T14:36:21;35.00;68.50
9808;DHT22;4943;52.550;13.462;2022-08-18T14:38:56;35.00;68.60
9808;DHT22;4943;52.550;13.462;2022-08-18T14:41:26;35.00;68.10
9808;DHT22;4943;52.550;13.462;2022-08-18T14:43:56;34.90;68.00
9808;DHT22;4943;52.550;13.462;2022-08-18T14:46:40;34.80;68.60
9808;DHT22;4943;52.550;13.462;2022-08-18T14:49:20;34.50;69.70
9808;DHT22;4943;52.550;13.462;2022-08-18T14:51:56;34.20;70.60
9808;DHT22;4943;52.550;13.462;2022-08-18T14:54:24;33.90;71.40
9808;DHT22;4943;52.550;13.462;2022-08-18T14:56:55;33.70;72.30
9808;DHT22;4943;52.550;13.462;2022-08-18T14:59:24;33.60;72.90
9808;DHT22;4943;52.550;13.462;2022-08-18T15:01:54;33.60;73.20
9808;DHT22;4943;52.550;13.462;2022-08-18T15:04:22;33.60;73.30
9808;DHT22;4943;52.550;13.462;2022-08-18T15:06:51;33.50;73.30
9808;DHT22;4943;52.550;13.462;2022-08-18T15:09:23;33.50;73.40
9808;DHT22;4943;52.550;13.462;2022-08-18T15:11:55;33.50;73.40
9808;DHT22;4943;52.550;13.462;2022-08-18T15:14:24;33.50;73.60
9808;DHT22;4943;52.550;13.462;2022-08-18T15:17:00;33.50;74.00
9808;DHT22;4943;52.550;13.462;2022-08-18T15:19:28;33.50;74.30
9808;DHT22;4943;52.550;13.462;2022-08-18T15:22:21;33.40;74.40
9808;DHT22;4943;52.550;13.462;2022-08-18T15:25:08;33.30;74.80
9808;DHT22;4943;52.550;13.462;2022-08-18T15:28:01;33.20;74.80
9808;DHT22;4943;52.550;13.462;2022-08-18T15:30:29;33.10;75.10
9808;DHT22;4943;52.550;13.462;2022-08-18T15:32:58;32.90;75.30
9808;DHT22;4943;52.550;13.462;2022-08-18T15:35:29;32.90;75.60
9808;DHT22;4943;52.550;13.462;2022-08-18T15:37:58;32.80;75.40
9808;DHT22;4943;52.550;13.462;2022-08-18T15:40:31;32.80;75.40
9808;DHT22;4943;52.550;13.462;2022-08-18T15:43:08;32.80;75.10
9808;DHT22;4943;52.550;13.462;2022-08-18T15:45:40;32.70;75.20
9808;DHT22;4943;52.550;13.462;2022-08-18T15:48:25;32.70;75.30
9808;DHT22;4943;52.550;13.462;2022-08-18T15:50:53;32.60;75.50
9808;DHT22;4943;52.550;13.462;2022-08-18T15:53:24;32.50;75.50
9808;DHT22;4943;52.550;13.462;2022-08-18T15:55:56;32.50;75.60
9808;DHT22;4943;52.550;13.462;2022-08-18T15:58:31;32.60;75.60
9808;DHT22;4943;52.550;13.462;2022-08-18T16:01:00;32.60;75.60
9808;DHT22;4943;52.550;13.462;2022-08-18T16:03:47;32.60;75.40
9808;DHT22;4943;52.550;13.462;2022-08-18T16:06:21;32.60;75.50
9808;DHT22;4943;52.550;13.462;2022-08-18T16:08:53;32.60;76.30
9808;DHT22;4943;52.550;13.462;2022-08-18T16:11:22;32.70;76.20
9808;DHT22;4943;52.550;13.462;2022-08-18T16:13:57;32.60;75.10
9808;DHT22;4943;52.550;13.462;2022-08-18T16:16:25;32.50;75.40
9808;DHT22;4943;52.550;13.462;2022-08-18T16:19:02;32.30;75.30
9808;DHT22;4943;52.550;13.462;2022-08-18T16:21:30;32.10;76.40
9808;DHT22;4943;52.550;13.462;2022-08-18T16:23:59;32.00;77.00
9808;DHT22;4943;52.550;13.462;2022-08-18T16:26:27;31.90;77.20
9808;DHT22;4943;52.550;13.462;2022-08-18T16:28:57;31.70;77.40
9808;DHT22;4943;52.550;13.462;2022-08-18T16:31:28;31.50;77.80
9808;DHT22;4943;52.550;13.462;2022-08-18T16:33:57;31.30;78.20
9808;DHT22;4943;52.550;13.462;2022-08-18T16:36:25;31.10;78.20
9808;DHT22;4943;52.550;13.462;2022-08-18T16:38:54;31.00;78.80
9808;DHT22;4943;52.550;13.462;2022-08-18T16:41:24;30.90;79.00
9808;DHT22;4943;52.550;13.462;2022-08-18T16:43:52;30.80;80.20
9808;DHT22;4943;52.550;13.462;2022-08-18T16:46:24;30.80;81.60
9808;DHT22;4943;52.550;13.462;2022-08-18T16:48:53;30.80;83.30